createdAt,value
2023-04-23T00:01:59.551Z,5.46
2023-04-23T00:04:27.322Z,5.41
2023-04-23T00:06:55.224Z,5.37
2023-04-23T00:09:23.154Z,5.35
2023-04-23T00:11:50.393Z,5.38
2023-04-23T00:14:17.515Z,5.30
2023-04-23T00:16:47.386Z,5.22
2023-04-23T00:19:16.590Z,5.12
2023-04-23T00:21:43.618Z,5.08
2023-04-23T00:24:16.038Z,5.07
2023-04-23T00:26:43.377Z,5.02
2023-04-23T00:29:16.603Z,5.04
2023-04-23T00:31:43.782Z,5.03
2023-04-23T00:34:11.015Z,5.02
2023-04-23T00:36:38.263Z,5.00
2023-04-23T00:39:06.030Z,4.94
2023-04-23T00:41:34.146Z,4.93
2023-04-23T00:44:01.245Z,4.90
2023-04-23T00:46:28.659Z,4.87
2023-04-23T00:48:55.837Z,4.82
2023-04-23T00:51:24.589Z,4.84
2023-04-23T00:53:55.007Z,4.98
2023-04-23T00:56:23.104Z,4.91
2023-04-23T00:58:51.784Z,4.83
2023-04-23T01:01:20.968Z,4.76
2023-04-23T01:03:49.583Z,4.75
2023-04-23T01:06:17.037Z,4.72
2023-04-23T01:08:47.292Z,4.64
2023-04-23T01:11:17.963Z,4.66
2023-04-23T01:13:45.584Z,4.68
2023-04-23T01:16:12.895Z,4.66
2023-04-23T01:18:41.206Z,4.66
2023-04-23T01:21:10.356Z,4.61
2023-04-23T01:23:37.834Z,4.58
2023-04-23T01:26:05.037Z,4.55
2023-04-23T01:28:32.826Z,4.53
2023-04-23T01:31:01.348Z,4.46
2023-04-23T01:33:31.764Z,4.41
2023-04-23T01:35:58.767Z,4.34
2023-04-23T01:38:26.195Z,4.29
2023-04-23T01:40:53.302Z,4.37
2023-04-23T01:43:23.038Z,4.37
2023-04-23T01:45:50.122Z,4.39
2023-04-23T01:48:17.558Z,4.33
2023-04-23T01:50:44.605Z,4.29
2023-04-23T01:53:12.073Z,4.28
2023-04-23T01:55:39.653Z,4.23
2023-04-23T01:58:07.647Z,4.19
2023-04-23T02:00:34.620Z,4.20
2023-04-23T02:03:01.988Z,4.20
2023-04-23T02:05:32.541Z,4.19
2023-04-23T02:07:59.439Z,4.22
2023-04-23T02:10:26.661Z,4.23
2023-04-23T02:12:53.874Z,4.19
2023-04-23T02:15:22.553Z,4.16
2023-04-23T02:17:52.333Z,4.15
2023-04-23T02:20:19.766Z,4.20
2023-04-23T02:22:47.299Z,4.24
2023-04-23T02:25:18.314Z,4.29
2023-04-23T02:27:45.544Z,4.40
2023-04-23T02:30:12.997Z,4.48
2023-04-23T02:32:41.145Z,4.56
2023-04-23T02:35:09.555Z,4.62
2023-04-23T02:37:39.752Z,4.67
2023-04-23T02:40:10.339Z,4.67
2023-04-23T02:42:37.681Z,4.68
2023-04-23T02:45:05.825Z,4.76
2023-04-23T02:47:37.580Z,4.74
2023-04-23T02:50:06.590Z,4.76
2023-04-23T02:52:34.137Z,4.80
2023-04-23T02:55:04.743Z,4.97
2023-04-23T02:57:34.807Z,5.22
2023-04-23T03:00:01.898Z,5.40
2023-04-23T03:02:36.951Z,5.50
2023-04-23T03:05:05.453Z,5.57
2023-04-23T03:07:32.598Z,5.63
2023-04-23T03:09:59.651Z,5.72
2023-04-23T03:12:26.626Z,5.84
2023-04-23T03:14:53.665Z,6.01
2023-04-23T03:17:26.260Z,6.16
2023-04-23T03:19:53.750Z,6.30
2023-04-23T03:22:24.730Z,6.53
2023-04-23T03:24:51.974Z,6.69
2023-04-23T03:27:20.450Z,6.88
2023-04-23T03:29:47.597Z,7.07
2023-04-23T03:32:14.713Z,7.09
2023-04-23T03:34:42.434Z,7.18
2023-04-23T03:37:10.050Z,7.19
2023-04-23T03:39:38.905Z,7.14
2023-04-23T03:42:07.286Z,7.00
2023-04-23T03:44:34.547Z,7.01
2023-04-23T03:47:01.806Z,7.15
2023-04-23T03:49:30.861Z,7.11
2023-04-23T03:51:59.573Z,7.09
2023-04-23T03:54:28.449Z,7.01
2023-04-23T03:57:12.968Z,7.03
2023-04-23T03:59:53.345Z,7.12
2023-04-23T04:02:20.695Z,7.38
2023-04-23T04:04:55.273Z,7.66
2023-04-23T04:07:24.621Z,7.91
2023-04-23T04:09:51.531Z,7.95
2023-04-23T04:12:20.355Z,8.07
2023-04-23T04:14:47.421Z,8.43
2023-04-23T04:17:16.232Z,8.68
2023-04-23T04:19:43.468Z,8.95
2023-04-23T04:22:10.499Z,9.06
2023-04-23T04:24:37.929Z,9.36
2023-04-23T04:27:06.113Z,9.63
2023-04-23T04:29:33.572Z,9.76
2023-04-23T04:32:05.528Z,9.80
2023-04-23T04:34:36.356Z,9.86
2023-04-23T04:37:03.395Z,9.97
2023-04-23T04:39:31.202Z,10.09
2023-04-23T04:42:00.000Z,10.28
2023-04-23T04:44:27.018Z,10.40
2023-04-23T04:46:54.429Z,10.48
2023-04-23T04:49:21.962Z,10.62
2023-04-23T04:51:52.265Z,10.77
2023-04-23T04:54:19.834Z,10.85
2023-04-23T04:57:09.096Z,11.07
2023-04-23T04:59:36.330Z,11.27
2023-04-23T05:02:09.239Z,11.39
2023-04-23T05:04:39.770Z,11.41
2023-04-23T05:07:07.780Z,11.59
2023-04-23T05:09:34.928Z,11.78
2023-04-23T05:12:05.011Z,11.93
2023-04-23T05:14:33.930Z,12.03
2023-04-23T05:17:05.471Z,12.08
2023-04-23T05:19:35.470Z,12.17
2023-04-23T05:22:05.039Z,12.24
2023-04-23T05:24:33.283Z,12.21
2023-04-23T05:27:03.507Z,12.19
2023-04-23T05:29:33.877Z,12.31
2023-04-23T05:32:06.523Z,12.39
2023-04-23T05:34:34.112Z,12.37
2023-04-23T05:37:11.508Z,12.48
2023-04-23T05:39:38.664Z,12.63
2023-04-23T05:42:07.984Z,12.62
2023-04-23T05:44:35.232Z,12.79
2023-04-23T05:47:02.294Z,12.88
2023-04-23T05:49:29.323Z,12.87
2023-04-23T05:51:59.450Z,12.99
2023-04-23T05:54:26.522Z,13.07
2023-04-23T05:56:56.965Z,13.22
2023-04-23T05:59:24.214Z,13.26
2023-04-23T06:01:51.336Z,13.28
2023-04-23T06:04:19.360Z,13.15
2023-04-23T06:06:48.864Z,13.19
2023-04-23T06:09:34.477Z,13.19
2023-04-23T06:12:03.426Z,13.10
2023-04-23T06:14:33.920Z,13.06
2023-04-23T06:17:04.482Z,13.10
2023-04-23T06:19:31.464Z,13.07
2023-04-23T06:21:58.520Z,13.15
2023-04-23T06:24:25.971Z,13.27
2023-04-23T06:26:53.310Z,13.41
2023-04-23T06:29:21.871Z,13.63
2023-04-23T06:32:02.730Z,13.76
2023-04-23T06:34:29.868Z,13.90
2023-04-23T06:37:02.628Z,13.93
2023-04-23T06:39:29.822Z,14.16
2023-04-23T06:41:58.213Z,14.70
2023-04-23T06:44:44.089Z,15.40
2023-04-23T06:47:11.571Z,15.86
2023-04-23T06:49:40.266Z,16.13
2023-04-23T06:52:20.454Z,16.34
2023-04-23T06:54:50.416Z,16.02
2023-04-23T06:57:22.072Z,15.98
2023-04-23T06:59:49.909Z,15.97
2023-04-23T07:02:19.759Z,16.30
2023-04-23T07:04:47.075Z,16.94
2023-04-23T07:07:14.285Z,16.98
2023-04-23T07:09:42.023Z,16.83
2023-04-23T07:12:10.287Z,17.04
2023-04-23T07:17:24.668Z,17.26
2023-04-23T07:19:52.299Z,16.98
2023-04-23T07:22:19.359Z,16.94
2023-04-23T07:24:46.780Z,16.73
2023-04-23T07:27:14.048Z,16.73
2023-04-23T07:29:41.114Z,16.65
2023-04-23T07:32:11.018Z,16.83
2023-04-23T07:34:39.363Z,17.23
2023-04-23T07:37:06.575Z,17.61
2023-04-23T07:39:34.879Z,17.84
2023-04-23T07:42:05.724Z,18.21
2023-04-23T07:44:33.635Z,18.02
2023-04-23T07:47:01.061Z,17.84
2023-04-23T07:49:28.664Z,17.68
2023-04-23T07:51:58.436Z,17.39
2023-04-23T07:54:27.367Z,17.65
2023-04-23T07:56:56.923Z,17.89
2023-04-23T07:59:23.969Z,18.32
2023-04-23T08:01:52.012Z,18.80
2023-04-23T08:04:22.279Z,18.94
2023-04-23T08:06:50.126Z,18.61
2023-04-23T08:09:17.468Z,18.63
2023-04-23T08:11:58.842Z,18.61
2023-04-23T08:14:26.150Z,17.98
2023-04-23T08:19:48.643Z,18.00
2023-04-23T08:22:17.581Z,17.80
2023-04-23T08:24:46.696Z,17.65
2023-04-23T08:27:14.137Z,17.45
2023-04-23T08:29:42.752Z,17.87
2023-04-23T08:32:32.670Z,18.69
2023-04-23T08:35:00.918Z,18.91
2023-04-23T08:37:31.414Z,19.58
2023-04-23T08:39:59.195Z,19.00
2023-04-23T08:42:59.938Z,17.89
2023-04-23T08:45:27.186Z,17.40
2023-04-23T08:48:08.563Z,17.44
2023-04-23T08:50:38.162Z,18.15
2023-04-23T08:53:08.972Z,19.97
2023-04-23T08:55:36.605Z,21.08
2023-04-23T08:58:07.516Z,21.41
2023-04-23T09:00:54.367Z,22.21
2023-04-23T09:03:22.766Z,23.12
2023-04-23T09:05:54.110Z,23.23
2023-04-23T09:08:41.401Z,23.36
2023-04-23T09:11:08.955Z,23.92
2023-04-23T09:13:37.173Z,24.63
2023-04-23T09:16:05.576Z,24.64
2023-04-23T09:18:32.549Z,24.95
2023-04-23T09:21:01.457Z,22.62
2023-04-23T09:23:28.800Z,20.88
2023-04-23T09:25:59.375Z,20.82
2023-04-23T09:28:44.585Z,20.60
2023-04-23T09:31:11.801Z,22.34
2023-04-23T09:33:41.889Z,22.86
2023-04-23T09:36:15.715Z,22.96
2023-04-23T09:38:42.885Z,23.35
2023-04-23T09:41:28.208Z,22.42
2023-04-23T09:44:02.545Z,22.87
2023-04-23T09:46:44.087Z,23.46
2023-04-23T09:49:13.565Z,22.71
2023-04-23T09:51:44.043Z,23.02
2023-04-23T09:54:16.588Z,23.60
2023-04-23T09:56:44.324Z,24.63
2023-04-23T09:59:35.996Z,24.51
2023-04-23T10:02:14.453Z,24.59
2023-04-23T10:04:42.539Z,23.55
2023-04-23T10:07:18.946Z,21.50
2023-04-23T10:10:10.500Z,22.86
2023-04-23T10:12:53.652Z,24.45
2023-04-23T10:15:22.848Z,24.94
2023-04-23T10:17:51.477Z,25.88
2023-04-23T10:20:21.371Z,26.15
2023-04-23T10:22:53.060Z,26.23
2023-04-23T10:25:29.478Z,26.01
2023-04-23T10:27:58.294Z,25.90
2023-04-23T10:30:25.701Z,24.82
2023-04-23T10:32:54.414Z,24.60
2023-04-23T10:35:24.252Z,22.85
2023-04-23T10:37:52.208Z,22.46
2023-04-23T10:40:30.170Z,20.53
2023-04-23T10:42:57.401Z,20.74
2023-04-23T10:45:44.191Z,23.57
2023-04-23T10:48:14.146Z,25.39
2023-04-23T10:51:06.933Z,26.01
2023-04-23T10:53:39.818Z,25.86
2023-04-23T10:56:07.980Z,26.29
2023-04-23T10:58:52.059Z,26.45
2023-04-23T11:01:20.961Z,26.42
2023-04-23T11:03:48.903Z,27.18
2023-04-23T11:06:21.041Z,27.32
2023-04-23T11:09:10.167Z,27.69
2023-04-23T11:11:41.295Z,27.09
2023-04-23T11:14:15.957Z,26.17
2023-04-23T11:17:07.069Z,25.85
2023-04-23T11:19:38.139Z,26.20
2023-04-23T11:22:23.070Z,27.15
2023-04-23T11:24:56.026Z,26.32
2023-04-23T11:27:27.072Z,25.54
2023-04-23T11:29:59.464Z,26.11
2023-04-23T11:32:49.795Z,26.58
2023-04-23T11:35:20.159Z,27.02
2023-04-23T11:37:51.630Z,26.55
2023-04-23T11:40:43.041Z,26.33
2023-04-23T11:43:10.317Z,26.94
2023-04-23T11:45:38.739Z,27.94
2023-04-23T11:48:13.867Z,28.50
2023-04-23T11:50:42.080Z,29.27
2023-04-23T11:53:11.416Z,29.98
2023-04-23T11:55:44.104Z,29.93
2023-04-23T11:58:12.074Z,29.58
2023-04-23T12:00:40.422Z,29.39
2023-04-23T12:03:07.950Z,29.78
2023-04-23T12:05:39.415Z,28.89
2023-04-23T12:08:21.641Z,29.47
2023-04-23T12:10:59.487Z,29.21
2023-04-23T12:13:33.934Z,29.64
2023-04-23T12:16:02.985Z,26.55
2023-04-23T12:18:39.339Z,26.31
2023-04-23T12:21:16.276Z,26.72
2023-04-23T12:23:45.351Z,27.67
2023-04-23T12:26:15.604Z,27.75
2023-04-23T12:29:01.556Z,28.82
2023-04-23T12:31:30.591Z,28.42
2023-04-23T12:34:08.525Z,28.72
2023-04-23T12:36:41.190Z,30.14
2023-04-23T12:39:24.295Z,30.95
2023-04-23T12:42:02.357Z,30.01
2023-04-23T12:44:58.065Z,30.32
2023-04-23T12:47:45.955Z,30.10
2023-04-23T12:50:22.557Z,29.94
2023-04-23T12:52:49.941Z,29.25
2023-04-23T12:55:17.029Z,29.05
2023-04-23T12:57:44.098Z,29.44
2023-04-23T13:00:12.479Z,30.28
2023-04-23T13:02:42.789Z,29.75
2023-04-23T13:05:10.145Z,30.53
2023-04-23T13:07:37.448Z,29.06
2023-04-23T13:10:10.904Z,28.24
2023-04-23T13:12:41.558Z,28.44
2023-04-23T13:15:15.748Z,29.79
2023-04-23T13:17:42.841Z,30.12
2023-04-23T13:20:10.428Z,29.74
2023-04-23T13:22:40.895Z,30.64
2023-04-23T13:25:08.894Z,29.92
2023-04-23T13:27:36.061Z,28.89
2023-04-23T13:30:03.441Z,27.82
2023-04-23T13:32:33.384Z,28.40
2023-04-23T13:35:03.113Z,29.39
2023-04-23T13:37:31.958Z,29.78
2023-04-23T13:39:59.158Z,29.73
2023-04-23T13:42:26.277Z,30.34
2023-04-23T13:44:53.472Z,28.49
2023-04-23T13:47:31.560Z,27.28
2023-04-23T13:50:07.013Z,28.20
2023-04-23T13:52:35.347Z,28.64
2023-04-23T13:55:04.049Z,28.76
2023-04-23T13:57:33.084Z,29.24
2023-04-23T14:00:00.833Z,29.05
2023-04-23T14:02:28.013Z,28.45
2023-04-23T14:04:55.413Z,29.40
2023-04-23T14:07:22.569Z,30.46
2023-04-23T14:09:52.859Z,29.42
2023-04-23T14:12:20.891Z,28.62
2023-04-23T14:14:49.411Z,28.77
2023-04-23T14:17:18.273Z,28.47
2023-04-23T14:19:45.288Z,28.15
2023-04-23T14:22:12.455Z,28.93
2023-04-23T14:24:49.576Z,29.26
2023-04-23T14:27:18.081Z,28.68
2023-04-23T14:29:56.968Z,27.28
2023-04-23T14:32:24.635Z,26.40
2023-04-23T14:34:51.831Z,26.37
2023-04-23T14:37:18.987Z,26.20
2023-04-23T14:39:48.373Z,26.15
2023-04-23T14:42:16.072Z,26.34
2023-04-23T14:44:44.071Z,26.69
2023-04-23T14:47:50.030Z,26.88
2023-04-23T14:50:28.436Z,27.53
2023-04-23T14:52:55.758Z,28.59
2023-04-23T14:55:23.098Z,28.59
2023-04-23T14:57:52.624Z,28.20
2023-04-23T15:00:21.699Z,28.47
2023-04-23T15:02:51.434Z,27.53
2023-04-23T15:05:40.285Z,27.42
2023-04-23T15:08:07.367Z,27.43
2023-04-23T15:10:34.429Z,26.83
2023-04-23T15:13:01.537Z,26.74
2023-04-23T15:15:45.276Z,26.99
2023-04-23T15:18:16.827Z,25.75
2023-04-23T15:20:46.329Z,25.96
2023-04-23T15:23:13.567Z,25.06
2023-04-23T15:25:43.467Z,22.85
2023-04-23T15:28:12.895Z,21.07
2023-04-23T15:30:40.206Z,20.23
2023-04-23T15:33:14.518Z,19.66
2023-04-23T15:35:44.796Z,19.00
2023-04-23T15:38:20.752Z,18.77
2023-04-23T15:40:49.786Z,18.61
2023-04-23T15:43:17.478Z,18.53
2023-04-23T15:45:48.541Z,18.57
2023-04-23T15:48:16.079Z,18.44
2023-04-23T15:50:43.976Z,18.32
2023-04-23T15:53:11.132Z,18.15
2023-04-23T15:55:39.920Z,18.03
2023-04-23T15:58:10.169Z,17.92
2023-04-23T16:00:38.660Z,17.83
2023-04-23T16:03:06.714Z,17.68
2023-04-23T16:05:36.093Z,17.64
2023-04-23T16:08:03.488Z,17.54
2023-04-23T16:10:47.019Z,17.42
2023-04-23T16:13:14.370Z,17.32
2023-04-23T16:15:41.805Z,17.24
2023-04-23T16:18:09.856Z,17.23
2023-04-23T16:20:37.017Z,17.15
2023-04-23T16:23:04.575Z,16.99
2023-04-23T16:36:56.476Z,17.30
2023-04-23T16:42:05.530Z,16.70
2023-04-23T16:44:33.735Z,16.38
2023-04-23T16:47:02.328Z,16.29
2023-04-23T16:49:55.538Z,16.31
2023-04-23T16:55:25.591Z,15.98
2023-04-23T17:23:38.484Z,15.23
2023-04-23T17:26:15.946Z,15.19
2023-04-23T17:28:51.778Z,15.17
2023-04-23T17:31:26.332Z,15.00
2023-04-23T17:33:58.620Z,15.04
2023-04-23T17:36:32.168Z,14.88
2023-04-23T17:38:59.981Z,14.99
2023-04-23T17:41:28.824Z,14.76
2023-04-23T17:43:58.454Z,15.01
2023-04-23T17:49:10.810Z,14.71
2023-04-23T17:51:38.069Z,14.59
2023-04-23T17:54:35.422Z,14.69
2023-04-23T17:57:09.957Z,14.53
2023-04-23T17:59:50.721Z,14.34
2023-04-23T18:02:18.321Z,14.31
2023-04-23T18:07:33.669Z,14.09
2023-04-23T18:10:11.389Z,13.91
2023-04-23T18:12:43.443Z,13.76
2023-04-23T18:15:12.618Z,13.74
2023-04-23T18:17:40.939Z,13.55
2023-04-23T18:20:12.204Z,13.66
2023-04-23T18:22:41.820Z,13.60
2023-04-23T18:25:36.933Z,13.48
2023-04-23T18:28:04.658Z,13.26
2023-04-23T18:30:31.547Z,13.24
2023-04-23T18:33:20.732Z,13.23
2023-04-23T18:35:48.296Z,13.11
2023-04-23T18:38:28.666Z,13.06
2023-04-23T18:40:55.892Z,12.95
2023-04-23T18:43:41.459Z,12.82
2023-04-23T18:46:12.297Z,12.78
2023-04-23T18:48:45.840Z,12.74
2023-04-23T18:51:31.109Z,12.69
2023-04-23T18:53:58.632Z,12.46
2023-04-23T18:59:08.567Z,12.38
2023-04-23T19:01:36.611Z,12.33
2023-04-23T19:04:04.085Z,12.28
2023-04-23T19:06:31.679Z,12.35
2023-04-23T19:08:59.597Z,12.35
2023-04-23T19:11:30.849Z,12.38
2023-04-23T19:13:58.029Z,12.30
2023-04-23T19:16:25.957Z,12.14
2023-04-23T19:18:53.250Z,12.04
2023-04-23T19:21:23.097Z,12.15
2023-04-23T19:23:53.012Z,12.09
2023-04-23T19:26:20.260Z,11.98
2023-04-23T19:28:47.414Z,11.97
2023-04-23T19:31:14.807Z,11.79
2023-04-23T19:33:45.415Z,11.87
2023-04-23T19:36:12.566Z,11.86
2023-04-23T19:38:40.051Z,11.74
2023-04-23T19:41:11.863Z,11.66
2023-04-23T19:43:48.071Z,11.57
2023-04-23T19:46:41.094Z,11.59
2023-04-23T19:49:09.366Z,11.52
2023-04-23T19:51:38.200Z,11.49
2023-04-23T19:54:07.592Z,11.43
2023-04-23T19:56:36.150Z,11.46
2023-04-23T19:59:03.206Z,11.49
2023-04-23T20:01:30.415Z,11.40
2023-04-23T20:03:57.628Z,11.39
2023-04-23T20:06:24.778Z,11.38
2023-04-23T20:09:10.425Z,11.38
2023-04-23T20:11:37.553Z,11.35
2023-04-23T20:14:06.051Z,11.39
2023-04-23T20:16:33.239Z,11.29
2023-04-23T20:19:02.618Z,11.25
2023-04-23T20:21:32.185Z,11.14
2023-04-23T20:24:14.095Z,11.02
2023-04-23T20:26:42.500Z,10.91
2023-04-23T20:29:09.870Z,10.85
2023-04-23T20:31:39.409Z,10.80
2023-04-23T20:34:07.131Z,10.75
2023-04-23T20:36:35.784Z,10.67
2023-04-23T20:39:06.154Z,10.66
2023-04-23T20:41:36.934Z,10.58
2023-04-23T20:44:07.498Z,10.65
2023-04-23T20:47:04.309Z,10.59
2023-04-23T20:52:16.083Z,10.42
2023-04-23T20:54:45.919Z,10.36
2023-04-23T20:57:17.949Z,10.33
2023-04-23T20:59:47.532Z,10.27
2023-04-23T21:02:15.409Z,10.28
2023-04-23T21:04:42.578Z,10.18
2023-04-23T21:07:13.468Z,10.23
2023-04-23T21:09:40.939Z,10.28
2023-04-23T21:12:08.588Z,10.16
2023-04-23T21:14:46.592Z,10.12
2023-04-23T21:17:13.643Z,10.10
2023-04-23T21:19:41.864Z,10.07
2023-04-23T21:22:09.301Z,10.15
2023-04-23T21:24:36.246Z,10.14
2023-04-23T21:27:03.940Z,10.14
2023-04-23T21:29:33.098Z,10.24
2023-04-23T21:32:01.689Z,10.37
2023-04-23T21:34:30.010Z,10.45
2023-04-23T21:37:11.564Z,10.40
2023-04-23T21:39:38.519Z,10.45
2023-04-23T21:42:07.679Z,10.52
2023-04-23T21:44:38.376Z,10.48
2023-04-23T21:47:11.637Z,10.30
2023-04-23T21:49:39.864Z,10.33
2023-04-23T21:52:09.028Z,10.25
2023-04-23T21:54:40.507Z,10.29
2023-04-23T21:57:09.082Z,10.31
2023-04-23T21:59:36.193Z,10.27
2023-04-23T22:02:03.337Z,10.33
2023-04-23T22:04:30.837Z,10.30
2023-04-23T22:07:03.544Z,10.28
2023-04-23T22:09:30.804Z,10.30
2023-04-23T22:12:02.300Z,10.26
2023-04-23T22:14:29.835Z,10.27
2023-04-23T22:17:02.010Z,10.22
2023-04-23T22:19:31.206Z,10.21
2023-04-23T22:21:58.451Z,10.20
2023-04-23T22:24:25.643Z,10.17
2023-04-23T22:26:52.720Z,10.20
2023-04-23T22:29:19.642Z,10.16
2023-04-23T22:31:46.633Z,10.10
2023-04-23T22:34:13.712Z,9.97
2023-04-23T22:36:43.291Z,9.92
2023-04-23T22:39:28.565Z,9.94
2023-04-23T22:41:56.775Z,9.90
2023-04-23T22:44:27.399Z,9.78
2023-04-23T22:46:56.277Z,9.67
2023-04-23T22:49:25.661Z,9.58
2023-04-23T22:51:58.761Z,9.67
2023-04-23T22:54:25.808Z,9.72
2023-04-23T22:56:53.236Z,9.73
2023-04-23T22:59:21.020Z,9.68
2023-04-23T23:01:48.496Z,9.64
2023-04-23T23:04:16.034Z,9.64
2023-04-23T23:06:43.407Z,9.68
2023-04-23T23:09:13.203Z,9.63
2023-04-23T23:11:40.235Z,9.66
2023-04-23T23:14:07.386Z,9.62
2023-04-23T23:16:39.761Z,9.53
2023-04-23T23:19:08.317Z,9.45
2023-04-23T23:21:35.357Z,9.44
2023-04-23T23:24:03.641Z,9.48
2023-04-23T23:26:30.882Z,9.45
2023-04-23T23:28:57.916Z,9.42
2023-04-23T23:31:26.107Z,9.50
2023-04-23T23:33:53.805Z,9.44
2023-04-23T23:36:21.060Z,9.42
2023-04-23T23:38:48.072Z,9.31
2023-04-23T23:41:15.105Z,9.31
2023-04-23T23:43:43.448Z,9.28
2023-04-23T23:46:11.776Z,9.23
2023-04-23T23:48:38.914Z,9.15
2023-04-23T23:51:05.900Z,9.11
2023-04-23T23:53:32.847Z,9.04
2023-04-23T23:56:00.437Z,9.03
2023-04-23T23:58:29.478Z,8.98
